Napaskiak, Alaska
Current Conditions -  °F | °C
As of 2:53 AM on Friday 24 Oct 2014 (Local Time) from PABE Reporting Station
Clear Clear  
Wind Chill: -7°   Ceiling: Unl
Heat Index: -2°   Visibility: 10mi
Dew Point: -3°   Wind: 10mph
Humidity: 96%   Direction: 280°W
Pressure: 29.86"   Gusts: NA
Location:  60.7494°N, 161.727°W
Report Text: PABE 241053Z 28009KT 10SM CLR M02/M03 A2986 RMK AO2 SLP115 T10221028 $
Loading
Personal Weather Stations






























Interactive Weather Map
Tropical Storm Tracking
New forecast layout! Learn more

10-Day Weather Forecast

Advertisements
Track Severe Weather on mobile